sensor_id;sensor_type;location;lat;lon;timestamp;P1;durP1;ratioP1;P2;durP2;ratioP2
32760;SDS011;19126;47.472;7.850;2022-10-16T00:01:14;7.30;;;4.15;;
32760;SDS011;19126;47.472;7.850;2022-10-16T00:03:44;8.55;;;3.47;;
32760;SDS011;19126;47.472;7.850;2022-10-16T00:06:12;11.95;;;5.03;;
32760;SDS011;19126;47.472;7.850;2022-10-16T00:08:41;10.82;;;6.53;;
32760;SDS011;19126;47.472;7.850;2022-10-16T00:11:11;10.55;;;7.03;;
32760;SDS011;19126;47.472;7.850;2022-10-16T00:13:42;14.63;;;7.13;;
32760;SDS011;19126;47.472;7.850;2022-10-16T00:16:11;10.77;;;6.30;;
32760;SDS011;19126;47.472;7.850;2022-10-16T00:18:39;13.38;;;5.75;;
32760;SDS011;19126;47.472;7.850;2022-10-16T00:21:08;10.68;;;6.32;;
32760;SDS011;19126;47.472;7.850;2022-10-16T00:23:38;12.23;;;7.10;;
32760;SDS011;19126;47.472;7.850;2022-10-16T00:26:06;21.08;;;6.15;;
32760;SDS011;19126;47.472;7.850;2022-10-16T00:28:38;9.25;;;5.30;;
32760;SDS011;19126;47.472;7.850;2022-10-16T00:31:06;14.70;;;5.95;;
32760;SDS011;19126;47.472;7.850;2022-10-16T00:33:36;16.02;;;5.43;;
32760;SDS011;19126;47.472;7.850;2022-10-16T00:36:06;8.48;;;4.18;;
32760;SDS011;19126;47.472;7.850;2022-10-16T00:38:35;11.88;;;4.13;;
32760;SDS011;19126;47.472;7.850;2022-10-16T00:41:04;19.70;;;4.38;;
32760;SDS011;19126;47.472;7.850;2022-10-16T00:43:36;11.32;;;4.60;;
32760;SDS011;19126;47.472;7.850;2022-10-16T00:46:10;8.18;;;4.53;;
32760;SDS011;19126;47.472;7.850;2022-10-16T00:48:43;12.82;;;4.50;;
32760;SDS011;19126;47.472;7.850;2022-10-16T00:51:17;12.57;;;4.28;;
32760;SDS011;19126;47.472;7.850;2022-10-16T00:53:49;12.95;;;4.50;;
32760;SDS011;19126;47.472;7.850;2022-10-16T00:56:17;15.45;;;4.28;;
32760;SDS011;19126;47.472;7.850;2022-10-16T00:58:46;8.20;;;4.63;;
32760;SDS011;19126;47.472;7.850;2022-10-16T01:01:13;11.80;;;4.28;;
32760;SDS011;19126;47.472;7.850;2022-10-16T01:03:41;9.80;;;5.35;;
32760;SDS011;19126;47.472;7.850;2022-10-16T01:08:58;10.68;;;4.05;;
32760;SDS011;19126;47.472;7.850;2022-10-16T01:11:38;7.95;;;5.07;;
32760;SDS011;19126;47.472;7.850;2022-10-16T01:14:21;13.40;;;5.07;;
32760;SDS011;19126;47.472;7.850;2022-10-16T01:17:08;8.05;;;4.55;;
32760;SDS011;19126;47.472;7.850;2022-10-16T01:19:50;13.93;;;5.43;;
32760;SDS011;19126;47.472;7.850;2022-10-16T01:22:41;10.32;;;5.40;;
32760;SDS011;19126;47.472;7.850;2022-10-16T01:25:25;12.25;;;4.90;;
32760;SDS011;19126;47.472;7.850;2022-10-16T01:28:04;17.75;;;5.90;;
32760;SDS011;19126;47.472;7.850;2022-10-16T01:30:37;11.35;;;5.18;;
32760;SDS011;19126;47.472;7.850;2022-10-16T01:33:07;13.07;;;4.97;;
32760;SDS011;19126;47.472;7.850;2022-10-16T01:35:41;8.52;;;4.63;;
32760;SDS011;19126;47.472;7.850;2022-10-16T01:38:15;16.90;;;5.18;;
32760;SDS011;19126;47.472;7.850;2022-10-16T01:40:49;8.60;;;4.80;;
32760;SDS011;19126;47.472;7.850;2022-10-16T01:43:25;9.80;;;3.97;;
32760;SDS011;19126;47.472;7.850;2022-10-16T01:45:59;8.80;;;4.07;;
32760;SDS011;19126;47.472;7.850;2022-10-16T01:48:27;14.45;;;4.80;;
32760;SDS011;19126;47.472;7.850;2022-10-16T01:50:59;8.20;;;4.03;;
32760;SDS011;19126;47.472;7.850;2022-10-16T01:53:31;6.72;;;4.13;;
32760;SDS011;19126;47.472;7.850;2022-10-16T01:55:59;12.05;;;3.60;;
32760;SDS011;19126;47.472;7.850;2022-10-16T01:58:30;9.20;;;4.03;;
32760;SDS011;19126;47.472;7.850;2022-10-16T02:01:03;11.30;;;4.25;;
32760;SDS011;19126;47.472;7.850;2022-10-16T02:03:34;8.38;;;4.20;;
32760;SDS011;19126;47.472;7.850;2022-10-16T02:06:10;5.88;;;3.45;;
32760;SDS011;19126;47.472;7.850;2022-10-16T02:08:37;9.05;;;3.42;;
32760;SDS011;19126;47.472;7.850;2022-10-16T02:11:09;7.17;;;4.03;;
32760;SDS011;19126;47.472;7.850;2022-10-16T02:13:39;9.32;;;3.90;;
32760;SDS011;19126;47.472;7.850;2022-10-16T02:16:11;10.38;;;3.97;;
32760;SDS011;19126;47.472;7.850;2022-10-16T02:18:40;9.52;;;3.85;;
32760;SDS011;19126;47.472;7.850;2022-10-16T02:21:10;13.23;;;3.65;;
32760;SDS011;19126;47.472;7.850;2022-10-16T02:23:45;6.38;;;3.20;;
32760;SDS011;19126;47.472;7.850;2022-10-16T02:26:19;9.93;;;3.40;;
32760;SDS011;19126;47.472;7.850;2022-10-16T02:28:57;8.82;;;3.63;;
32760;SDS011;19126;47.472;7.850;2022-10-16T02:31:31;7.22;;;3.00;;
32760;SDS011;19126;47.472;7.850;2022-10-16T02:34:03;8.35;;;3.97;;
32760;SDS011;19126;47.472;7.850;2022-10-16T02:36:32;9.05;;;3.33;;
32760;SDS011;19126;47.472;7.850;2022-10-16T02:39:01;3.17;;;2.70;;
32760;SDS011;19126;47.472;7.850;2022-10-16T02:41:30;13.40;;;3.10;;
32760;SDS011;19126;47.472;7.850;2022-10-16T02:44:00;12.65;;;3.40;;
32760;SDS011;19126;47.472;7.850;2022-10-16T02:46:27;18.73;;;3.63;;
32760;SDS011;19126;47.472;7.850;2022-10-16T02:48:54;10.27;;;4.38;;
32760;SDS011;19126;47.472;7.850;2022-10-16T02:51:21;9.38;;;3.00;;
32760;SDS011;19126;47.472;7.850;2022-10-16T02:53:49;12.13;;;3.03;;
32760;SDS011;19126;47.472;7.850;2022-10-16T02:56:16;7.10;;;2.85;;
32760;SDS011;19126;47.472;7.850;2022-10-16T02:58:43;10.65;;;2.83;;
32760;SDS011;19126;47.472;7.850;2022-10-16T03:01:12;12.25;;;3.78;;
32760;SDS011;19126;47.472;7.850;2022-10-16T03:03:41;7.97;;;3.53;;
32760;SDS011;19126;47.472;7.850;2022-10-16T03:06:08;6.80;;;3.30;;
32760;SDS011;19126;47.472;7.850;2022-10-16T03:08:36;14.75;;;3.78;;
32760;SDS011;19126;47.472;7.850;2022-10-16T03:11:03;7.25;;;3.30;;
32760;SDS011;19126;47.472;7.850;2022-10-16T03:13:30;11.40;;;3.70;;
32760;SDS011;19126;47.472;7.850;2022-10-16T03:15:57;7.53;;;3.45;;
32760;SDS011;19126;47.472;7.850;2022-10-16T03:18:26;6.32;;;3.20;;
32760;SDS011;19126;47.472;7.850;2022-10-16T03:20:54;12.55;;;4.32;;
32760;SDS011;19126;47.472;7.850;2022-10-16T03:23:21;11.30;;;3.60;;
32760;SDS011;19126;47.472;7.850;2022-10-16T03:25:48;8.32;;;4.10;;
32760;SDS011;19126;47.472;7.850;2022-10-16T03:28:15;15.20;;;3.90;;
32760;SDS011;19126;47.472;7.850;2022-10-16T03:30:43;7.60;;;3.50;;
32760;SDS011;19126;47.472;7.850;2022-10-16T03:33:10;7.60;;;3.80;;
32760;SDS011;19126;47.472;7.850;2022-10-16T03:35:39;10.45;;;3.55;;
32760;SDS011;19126;47.472;7.850;2022-10-16T03:38:06;10.63;;;3.38;;
32760;SDS011;19126;47.472;7.850;2022-10-16T03:40:33;5.78;;;3.58;;
32760;SDS011;19126;47.472;7.850;2022-10-16T03:43:00;7.18;;;2.80;;
32760;SDS011;19126;47.472;7.850;2022-10-16T03:45:27;6.78;;;3.67;;
32760;SDS011;19126;47.472;7.850;2022-10-16T03:47:54;10.00;;;4.22;;
32760;SDS011;19126;47.472;7.850;2022-10-16T03:50:22;9.85;;;3.58;;
32760;SDS011;19126;47.472;7.850;2022-10-16T03:52:50;17.65;;;4.05;;
32760;SDS011;19126;47.472;7.850;2022-10-16T03:55:17;11.07;;;3.53;;
32760;SDS011;19126;47.472;7.850;2022-10-16T03:57:45;10.55;;;3.80;;
32760;SDS011;19126;47.472;7.850;2022-10-16T04:00:12;16.90;;;3.63;;
32760;SDS011;19126;47.472;7.850;2022-10-16T04:02:41;11.48;;;4.07;;
32760;SDS011;19126;47.472;7.850;2022-10-16T04:05:08;6.45;;;3.45;;
32760;SDS011;19126;47.472;7.850;2022-10-16T04:07:35;6.35;;;3.28;;
32760;SDS011;19126;47.472;7.850;2022-10-16T04:10:05;14.98;;;4.03;;
32760;SDS011;19126;47.472;7.850;2022-10-16T04:12:33;8.73;;;3.35;;
32760;SDS011;19126;47.472;7.850;2022-10-16T04:15:00;7.05;;;3.17;;
32760;SDS011;19126;47.472;7.850;2022-10-16T04:17:27;7.38;;;3.20;;
32760;SDS011;19126;47.472;7.850;2022-10-16T04:19:55;8.52;;;3.90;;
32760;SDS011;19126;47.472;7.850;2022-10-16T04:22:22;12.15;;;3.17;;
32760;SDS011;19126;47.472;7.850;2022-10-16T04:24:49;6.95;;;3.55;;
32760;SDS011;19126;47.472;7.850;2022-10-16T04:27:18;4.35;;;3.00;;
32760;SDS011;19126;47.472;7.850;2022-10-16T04:29:45;9.10;;;3.30;;
32760;SDS011;19126;47.472;7.850;2022-10-16T04:32:12;7.18;;;3.10;;
32760;SDS011;19126;47.472;7.850;2022-10-16T04:34:39;12.85;;;4.40;;
32760;SDS011;19126;47.472;7.850;2022-10-16T04:37:07;9.80;;;3.78;;
32760;SDS011;19126;47.472;7.850;2022-10-16T04:39:34;7.15;;;3.10;;
32760;SDS011;19126;47.472;7.850;2022-10-16T04:42:01;9.38;;;3.55;;
32760;SDS011;19126;47.472;7.850;2022-10-16T04:44:30;5.78;;;3.05;;
32760;SDS011;19126;47.472;7.850;2022-10-16T04:46:57;10.60;;;3.05;;
32760;SDS011;19126;47.472;7.850;2022-10-16T04:49:24;7.55;;;4.43;;
32760;SDS011;19126;47.472;7.850;2022-10-16T04:51:51;11.20;;;4.40;;
32760;SDS011;19126;47.472;7.850;2022-10-16T04:54:19;12.52;;;3.28;;
32760;SDS011;19126;47.472;7.850;2022-10-16T04:56:46;8.80;;;3.25;;
32760;SDS011;19126;47.472;7.850;2022-10-16T04:59:15;11.57;;;3.38;;
32760;SDS011;19126;47.472;7.850;2022-10-16T05:01:44;5.85;;;3.42;;
32760;SDS011;19126;47.472;7.850;2022-10-16T05:04:12;4.10;;;3.05;;
32760;SDS011;19126;47.472;7.850;2022-10-16T05:06:40;8.15;;;3.67;;
32760;SDS011;19126;47.472;7.850;2022-10-16T05:09:08;7.00;;;3.08;;
32760;SDS011;19126;47.472;7.850;2022-10-16T05:11:36;5.35;;;3.42;;
32760;SDS011;19126;47.472;7.850;2022-10-16T05:14:03;16.67;;;3.10;;
32760;SDS011;19126;47.472;7.850;2022-10-16T05:16:30;12.93;;;3.80;;
32760;SDS011;19126;47.472;7.850;2022-10-16T05:18:59;9.27;;;3.70;;
32760;SDS011;19126;47.472;7.850;2022-10-16T05:21:26;6.72;;;3.50;;
32760;SDS011;19126;47.472;7.850;2022-10-16T05:23:53;6.72;;;3.72;;
32760;SDS011;19126;47.472;7.850;2022-10-16T05:26:20;9.57;;;3.80;;
32760;SDS011;19126;47.472;7.850;2022-10-16T05:28:48;14.93;;;3.97;;
32760;SDS011;19126;47.472;7.850;2022-10-16T05:31:16;8.68;;;3.95;;
32760;SDS011;19126;47.472;7.850;2022-10-16T05:33:43;15.32;;;3.63;;
32760;SDS011;19126;47.472;7.850;2022-10-16T05:36:12;10.55;;;3.67;;
32760;SDS011;19126;47.472;7.850;2022-10-16T05:38:39;8.75;;;2.88;;
32760;SDS011;19126;47.472;7.850;2022-10-16T05:41:06;8.05;;;4.00;;
32760;SDS011;19126;47.472;7.850;2022-10-16T05:43:33;8.77;;;3.05;;
32760;SDS011;19126;47.472;7.850;2022-10-16T05:46:02;4.60;;;3.13;;
32760;SDS011;19126;47.472;7.850;2022-10-16T05:48:31;11.00;;;2.40;;
32760;SDS011;19126;47.472;7.850;2022-10-16T05:50:59;9.50;;;3.75;;
32760;SDS011;19126;47.472;7.850;2022-10-16T05:53:31;4.85;;;3.22;;
32760;SDS011;19126;47.472;7.850;2022-10-16T05:56:01;8.07;;;3.67;;
32760;SDS011;19126;47.472;7.850;2022-10-16T05:58:30;15.57;;;3.42;;
32760;SDS011;19126;47.472;7.850;2022-10-16T06:01:00;14.98;;;3.50;;
32760;SDS011;19126;47.472;7.850;2022-10-16T06:03:30;7.47;;;2.88;;
32760;SDS011;19126;47.472;7.850;2022-10-16T06:05:57;21.33;;;3.17;;
32760;SDS011;19126;47.472;7.850;2022-10-16T06:08:24;13.65;;;3.20;;
32760;SDS011;19126;47.472;7.850;2022-10-16T06:11:01;14.98;;;3.20;;
32760;SDS011;19126;47.472;7.850;2022-10-16T06:13:29;9.18;;;3.30;;
32760;SDS011;19126;47.472;7.850;2022-10-16T06:15:56;12.15;;;3.25;;
32760;SDS011;19126;47.472;7.850;2022-10-16T06:18:25;13.43;;;3.35;;
32760;SDS011;19126;47.472;7.850;2022-10-16T06:20:53;8.45;;;3.85;;
32760;SDS011;19126;47.472;7.850;2022-10-16T06:23:20;12.75;;;4.25;;
32760;SDS011;19126;47.472;7.850;2022-10-16T06:25:48;10.13;;;4.18;;
32760;SDS011;19126;47.472;7.850;2022-10-16T06:28:18;14.98;;;4.82;;
32760;SDS011;19126;47.472;7.850;2022-10-16T06:30:45;12.00;;;3.63;;
32760;SDS011;19126;47.472;7.850;2022-10-16T06:33:12;6.85;;;3.55;;
32760;SDS011;19126;47.472;7.850;2022-10-16T06:35:40;10.13;;;3.38;;
32760;SDS011;19126;47.472;7.850;2022-10-16T06:38:07;7.90;;;3.45;;
32760;SDS011;19126;47.472;7.850;2022-10-16T06:40:34;5.15;;;3.42;;
32760;SDS011;19126;47.472;7.850;2022-10-16T06:43:01;12.07;;;3.45;;
32760;SDS011;19126;47.472;7.850;2022-10-16T06:45:30;5.15;;;3.10;;
32760;SDS011;19126;47.472;7.850;2022-10-16T06:47:57;15.30;;;4.85;;
32760;SDS011;19126;47.472;7.850;2022-10-16T06:50:24;6.70;;;3.03;;
32760;SDS011;19126;47.472;7.850;2022-10-16T06:52:51;8.05;;;3.67;;
32760;SDS011;19126;47.472;7.850;2022-10-16T06:55:19;9.00;;;3.38;;
32760;SDS011;19126;47.472;7.850;2022-10-16T06:57:46;11.15;;;3.33;;
32760;SDS011;19126;47.472;7.850;2022-10-16T07:00:14;8.18;;;3.80;;
32760;SDS011;19126;47.472;7.850;2022-10-16T07:02:43;10.15;;;4.45;;
32760;SDS011;19126;47.472;7.850;2022-10-16T07:05:10;11.77;;;5.15;;
32760;SDS011;19126;47.472;7.850;2022-10-16T07:07:37;8.48;;;4.18;;
32760;SDS011;19126;47.472;7.850;2022-10-16T07:10:05;7.03;;;3.30;;
32760;SDS011;19126;47.472;7.850;2022-10-16T07:12:33;7.05;;;4.20;;
32760;SDS011;19126;47.472;7.850;2022-10-16T07:15:00;10.80;;;4.28;;
32760;SDS011;19126;47.472;7.850;2022-10-16T07:17:27;7.93;;;3.40;;
32760;SDS011;19126;47.472;7.850;2022-10-16T07:19:56;8.85;;;2.38;;
32760;SDS011;19126;47.472;7.850;2022-10-16T07:22:23;7.38;;;3.55;;
32760;SDS011;19126;47.472;7.850;2022-10-16T07:24:50;12.70;;;3.58;;
32760;SDS011;19126;47.472;7.850;2022-10-16T07:27:17;7.00;;;2.40;;
32760;SDS011;19126;47.472;7.850;2022-10-16T07:29:47;5.80;;;2.90;;
32760;SDS011;19126;47.472;7.850;2022-10-16T07:32:14;6.10;;;2.60;;
32760;SDS011;19126;47.472;7.850;2022-10-16T07:34:42;3.50;;;2.65;;
32760;SDS011;19126;47.472;7.850;2022-10-16T07:37:10;11.55;;;3.22;;
32760;SDS011;19126;47.472;7.850;2022-10-16T07:39:37;8.07;;;2.70;;
32760;SDS011;19126;47.472;7.850;2022-10-16T07:42:05;7.93;;;2.40;;
32760;SDS011;19126;47.472;7.850;2022-10-16T07:44:32;9.80;;;2.70;;
32760;SDS011;19126;47.472;7.850;2022-10-16T07:47:00;7.13;;;2.55;;
32760;SDS011;19126;47.472;7.850;2022-10-16T07:49:27;4.30;;;2.85;;
32760;SDS011;19126;47.472;7.850;2022-10-16T07:51:55;12.80;;;2.35;;
32760;SDS011;19126;47.472;7.850;2022-10-16T07:54:23;6.45;;;2.70;;
32760;SDS011;19126;47.472;7.850;2022-10-16T07:56:51;7.72;;;2.30;;
32760;SDS011;19126;47.472;7.850;2022-10-16T07:59:18;5.60;;;2.22;;
32760;SDS011;19126;47.472;7.850;2022-10-16T08:01:45;5.18;;;2.38;;
32760;SDS011;19126;47.472;7.850;2022-10-16T08:04:12;12.18;;;2.70;;
32760;SDS011;19126;47.472;7.850;2022-10-16T08:06:40;10.63;;;2.58;;
32760;SDS011;19126;47.472;7.850;2022-10-16T08:09:07;12.23;;;2.42;;
32760;SDS011;19126;47.472;7.850;2022-10-16T08:11:36;11.02;;;2.50;;
32760;SDS011;19126;47.472;7.850;2022-10-16T08:14:04;9.80;;;2.35;;
32760;SDS011;19126;47.472;7.850;2022-10-16T08:16:31;9.32;;;2.38;;
32760;SDS011;19126;47.472;7.850;2022-10-16T08:18:58;10.43;;;2.38;;
32760;SDS011;19126;47.472;7.850;2022-10-16T08:21:25;13.18;;;1.88;;
32760;SDS011;19126;47.472;7.850;2022-10-16T08:23:53;6.22;;;2.13;;
32760;SDS011;19126;47.472;7.850;2022-10-16T08:26:21;8.43;;;2.28;;
32760;SDS011;19126;47.472;7.850;2022-10-16T08:28:50;9.30;;;2.10;;
32760;SDS011;19126;47.472;7.850;2022-10-16T08:31:17;9.43;;;2.38;;
32760;SDS011;19126;47.472;7.850;2022-10-16T08:33:45;5.57;;;2.30;;
32760;SDS011;19126;47.472;7.850;2022-10-16T08:36:13;6.00;;;2.03;;
32760;SDS011;19126;47.472;7.850;2022-10-16T08:38:42;5.43;;;1.90;;
32760;SDS011;19126;47.472;7.850;2022-10-16T08:41:14;3.63;;;1.88;;
32760;SDS011;19126;47.472;7.850;2022-10-16T08:47:11;9.63;;;2.42;;
32760;SDS011;19126;47.472;7.850;2022-10-16T08:49:51;9.43;;;1.98;;
32760;SDS011;19126;47.472;7.850;2022-10-16T08:52:25;5.32;;;1.67;;
32760;SDS011;19126;47.472;7.850;2022-10-16T08:55:00;11.40;;;1.60;;
32760;SDS011;19126;47.472;7.850;2022-10-16T08:57:28;10.05;;;2.20;;
32760;SDS011;19126;47.472;7.850;2022-10-16T08:59:59;7.70;;;1.70;;
32760;SDS011;19126;47.472;7.850;2022-10-16T09:02:40;10.52;;;2.42;;
32760;SDS011;19126;47.472;7.850;2022-10-16T09:05:23;4.35;;;1.60;;
32760;SDS011;19126;47.472;7.850;2022-10-16T09:08:16;6.03;;;1.95;;
32760;SDS011;19126;47.472;7.850;2022-10-16T09:10:54;8.57;;;2.33;;
32760;SDS011;19126;47.472;7.850;2022-10-16T09:13:26;10.00;;;1.88;;
32760;SDS011;19126;47.472;7.850;2022-10-16T09:16:04;11.18;;;1.92;;
32760;SDS011;19126;47.472;7.850;2022-10-16T09:18:45;10.00;;;2.40;;
32760;SDS011;19126;47.472;7.850;2022-10-16T09:21:20;12.90;;;1.90;;
32760;SDS011;19126;47.472;7.850;2022-10-16T09:23:51;11.25;;;1.90;;
32760;SDS011;19126;47.472;7.850;2022-10-16T09:26:20;4.10;;;2.05;;
32760;SDS011;19126;47.472;7.850;2022-10-16T09:28:47;4.93;;;1.70;;
32760;SDS011;19126;47.472;7.850;2022-10-16T09:31:19;3.45;;;1.90;;
32760;SDS011;19126;47.472;7.850;2022-10-16T09:33:49;4.10;;;1.77;;
32760;SDS011;19126;47.472;7.850;2022-10-16T09:38:49;5.95;;;2.05;;
32760;SDS011;19126;47.472;7.850;2022-10-16T09:41:27;9.27;;;1.80;;
32760;SDS011;19126;47.472;7.850;2022-10-16T09:43:54;8.25;;;2.00;;
32760;SDS011;19126;47.472;7.850;2022-10-16T09:46:27;6.13;;;1.63;;
32760;SDS011;19126;47.472;7.850;2022-10-16T09:48:56;7.07;;;2.28;;
32760;SDS011;19126;47.472;7.850;2022-10-16T09:51:45;8.77;;;1.80;;
32760;SDS011;19126;47.472;7.850;2022-10-16T09:54:14;2.72;;;1.83;;
32760;SDS011;19126;47.472;7.850;2022-10-16T09:56:43;2.70;;;1.88;;
32760;SDS011;19126;47.472;7.850;2022-10-16T09:59:14;20.77;;;2.05;;
32760;SDS011;19126;47.472;7.850;2022-10-16T10:01:46;6.18;;;1.70;;
32760;SDS011;19126;47.472;7.850;2022-10-16T10:04:16;6.18;;;1.90;;
32760;SDS011;19126;47.472;7.850;2022-10-16T10:06:45;10.30;;;1.60;;
32760;SDS011;19126;47.472;7.850;2022-10-16T10:09:19;6.07;;;1.50;;
32760;SDS011;19126;47.472;7.850;2022-10-16T10:11:50;9.35;;;1.70;;
32760;SDS011;19126;47.472;7.850;2022-10-16T10:14:24;6.63;;;1.52;;
32760;SDS011;19126;47.472;7.850;2022-10-16T10:17:07;5.60;;;1.23;;
32760;SDS011;19126;47.472;7.850;2022-10-16T10:19:40;5.97;;;1.38;;
32760;SDS011;19126;47.472;7.850;2022-10-16T10:25:19;5.13;;;1.45;;
32760;SDS011;19126;47.472;7.850;2022-10-16T10:28:15;2.78;;;1.38;;
32760;SDS011;19126;47.472;7.850;2022-10-16T10:30:56;3.55;;;1.58;;
32760;SDS011;19126;47.472;7.850;2022-10-16T10:33:34;4.18;;;1.42;;
32760;SDS011;19126;47.472;7.850;2022-10-16T10:36:22;6.72;;;1.23;;
32760;SDS011;19126;47.472;7.850;2022-10-16T10:38:57;6.20;;;1.23;;
32760;SDS011;19126;47.472;7.850;2022-10-16T10:41:46;9.27;;;1.55;;
32760;SDS011;19126;47.472;7.850;2022-10-16T10:44:47;4.82;;;1.40;;
32760;SDS011;19126;47.472;7.850;2022-10-16T10:47:44;3.75;;;1.27;;
32760;SDS011;19126;47.472;7.850;2022-10-16T10:50:24;5.45;;;1.30;;
32760;SDS011;19126;47.472;7.850;2022-10-16T10:53:00;9.15;;;1.65;;
32760;SDS011;19126;47.472;7.850;2022-10-16T10:55:39;4.57;;;1.25;;
32760;SDS011;19126;47.472;7.850;2022-10-16T10:58:17;2.17;;;1.30;;
32760;SDS011;19126;47.472;7.850;2022-10-16T11:01:12;3.55;;;1.10;;
32760;SDS011;19126;47.472;7.850;2022-10-16T11:03:46;9.90;;;1.40;;
32760;SDS011;19126;47.472;7.850;2022-10-16T11:06:36;5.50;;;1.05;;
32760;SDS011;19126;47.472;7.850;2022-10-16T11:09:10;4.32;;;1.10;;
32760;SDS011;19126;47.472;7.850;2022-10-16T11:11:43;3.63;;;1.42;;
32760;SDS011;19126;47.472;7.850;2022-10-16T11:14:17;5.68;;;1.55;;
32760;SDS011;19126;47.472;7.850;2022-10-16T11:16:49;7.25;;;1.38;;
32760;SDS011;19126;47.472;7.850;2022-10-16T11:19:23;2.47;;;1.30;;
32760;SDS011;19126;47.472;7.850;2022-10-16T11:22:03;8.15;;;1.80;;
32760;SDS011;19126;47.472;7.850;2022-10-16T11:24:40;5.95;;;1.90;;
32760;SDS011;19126;47.472;7.850;2022-10-16T11:27:14;9.52;;;1.40;;
32760;SDS011;19126;47.472;7.850;2022-10-16T11:29:49;6.47;;;1.30;;
32760;SDS011;19126;47.472;7.850;2022-10-16T11:32:24;4.53;;;1.20;;
32760;SDS011;19126;47.472;7.850;2022-10-16T11:34:59;6.82;;;1.45;;
32760;SDS011;19126;47.472;7.850;2022-10-16T11:37:38;4.78;;;0.88;;
32760;SDS011;19126;47.472;7.850;2022-10-16T11:40:16;1.42;;;1.10;;
32760;SDS011;19126;47.472;7.850;2022-10-16T11:42:51;5.00;;;1.25;;
32760;SDS011;19126;47.472;7.850;2022-10-16T11:45:29;2.63;;;1.13;;
32760;SDS011;19126;47.472;7.850;2022-10-16T11:48:08;4.25;;;1.30;;
32760;SDS011;19126;47.472;7.850;2022-10-16T11:50:46;5.35;;;1.42;;
32760;SDS011;19126;47.472;7.850;2022-10-16T11:53:23;4.00;;;1.27;;
32760;SDS011;19126;47.472;7.850;2022-10-16T11:56:05;7.10;;;1.17;;
32760;SDS011;19126;47.472;7.850;2022-10-16T11:58:33;8.25;;;1.42;;
32760;SDS011;19126;47.472;7.850;2022-10-16T12:01:12;4.90;;;1.70;;
32760;SDS011;19126;47.472;7.850;2022-10-16T12:03:48;10.38;;;1.40;;
32760;SDS011;19126;47.472;7.850;2022-10-16T12:06:31;3.42;;;1.10;;
32760;SDS011;19126;47.472;7.850;2022-10-16T12:09:05;2.33;;;1.20;;
32760;SDS011;19126;47.472;7.850;2022-10-16T12:11:40;3.35;;;1.50;;
32760;SDS011;19126;47.472;7.850;2022-10-16T12:14:18;3.75;;;1.33;;
32760;SDS011;19126;47.472;7.850;2022-10-16T12:17:00;3.80;;;1.45;;
32760;SDS011;19126;47.472;7.850;2022-10-16T12:19:31;1.63;;;0.95;;
32760;SDS011;19126;47.472;7.850;2022-10-16T12:21:59;8.00;;;1.33;;
32760;SDS011;19126;47.472;7.850;2022-10-16T12:24:34;6.32;;;1.38;;
32760;SDS011;19126;47.472;7.850;2022-10-16T12:27:06;2.13;;;1.30;;
32760;SDS011;19126;47.472;7.850;2022-10-16T12:29:53;4.20;;;1.27;;
32760;SDS011;19126;47.472;7.850;2022-10-16T12:32:26;4.28;;;1.20;;
32760;SDS011;19126;47.472;7.850;2022-10-16T12:34:58;4.63;;;1.33;;
32760;SDS011;19126;47.472;7.850;2022-10-16T12:37:27;2.92;;;0.95;;
32760;SDS011;19126;47.472;7.850;2022-10-16T12:40:10;7.68;;;1.42;;
32760;SDS011;19126;47.472;7.850;2022-10-16T12:42:42;5.28;;;0.85;;
32760;SDS011;19126;47.472;7.850;2022-10-16T12:45:25;2.35;;;1.10;;
32760;SDS011;19126;47.472;7.850;2022-10-16T12:47:56;2.20;;;1.02;;
32760;SDS011;19126;47.472;7.850;2022-10-16T12:50:25;9.23;;;1.08;;
32760;SDS011;19126;47.472;7.850;2022-10-16T12:52:57;4.25;;;1.10;;
32760;SDS011;19126;47.472;7.850;2022-10-16T12:55:26;5.72;;;1.30;;
32760;SDS011;19126;47.472;7.850;2022-10-16T12:58:24;2.78;;;1.10;;
32760;SDS011;19126;47.472;7.850;2022-10-16T13:01:21;7.53;;;1.33;;
32760;SDS011;19126;47.472;7.850;2022-10-16T13:04:27;5.20;;;1.00;;
32760;SDS011;19126;47.472;7.850;2022-10-16T13:07:24;4.15;;;1.27;;
32760;SDS011;19126;47.472;7.850;2022-10-16T13:10:15;4.32;;;1.35;;
32760;SDS011;19126;47.472;7.850;2022-10-16T13:13:03;7.00;;;1.42;;
32760;SDS011;19126;47.472;7.850;2022-10-16T13:15:57;11.82;;;1.45;;
32760;SDS011;19126;47.472;7.850;2022-10-16T13:18:36;3.05;;;1.15;;
32760;SDS011;19126;47.472;7.850;2022-10-16T13:21:18;7.13;;;1.33;;
32760;SDS011;19126;47.472;7.850;2022-10-16T13:24:00;9.32;;;1.42;;
32760;SDS011;19126;47.472;7.850;2022-10-16T13:26:40;11.10;;;1.25;;
32760;SDS011;19126;47.472;7.850;2022-10-16T13:29:17;7.10;;;1.45;;
32760;SDS011;19126;47.472;7.850;2022-10-16T13:31:46;7.70;;;1.90;;
32760;SDS011;19126;47.472;7.850;2022-10-16T13:34:14;7.53;;;1.50;;
32760;SDS011;19126;47.472;7.850;2022-10-16T13:36:45;1.55;;;1.08;;
32760;SDS011;19126;47.472;7.850;2022-10-16T13:39:19;7.72;;;1.95;;
32760;SDS011;19126;47.472;7.850;2022-10-16T13:42:03;2.83;;;1.40;;
32760;SDS011;19126;47.472;7.850;2022-10-16T13:44:36;13.23;;;1.98;;
32760;SDS011;19126;47.472;7.850;2022-10-16T13:47:14;9.02;;;1.88;;
32760;SDS011;19126;47.472;7.850;2022-10-16T13:49:44;3.33;;;1.52;;
32760;SDS011;19126;47.472;7.850;2022-10-16T13:52:16;9.88;;;1.80;;
32760;SDS011;19126;47.472;7.850;2022-10-16T13:54:45;3.50;;;1.42;;
32760;SDS011;19126;47.472;7.850;2022-10-16T13:57:13;7.07;;;1.77;;
32760;SDS011;19126;47.472;7.850;2022-10-16T13:59:43;2.50;;;1.25;;
32760;SDS011;19126;47.472;7.850;2022-10-16T14:02:15;2.15;;;1.48;;
32760;SDS011;19126;47.472;7.850;2022-10-16T14:04:48;3.05;;;1.70;;
32760;SDS011;19126;47.472;7.850;2022-10-16T14:07:18;4.32;;;1.70;;
32760;SDS011;19126;47.472;7.850;2022-10-16T14:09:51;3.58;;;1.60;;
32760;SDS011;19126;47.472;7.850;2022-10-16T14:12:20;9.70;;;1.85;;
32760;SDS011;19126;47.472;7.850;2022-10-16T14:14:51;8.25;;;1.73;;
32760;SDS011;19126;47.472;7.850;2022-10-16T14:17:22;3.47;;;1.67;;
32760;SDS011;19126;47.472;7.850;2022-10-16T14:19:52;6.78;;;2.00;;
32760;SDS011;19126;47.472;7.850;2022-10-16T14:22:24;3.10;;;1.42;;
32760;SDS011;19126;47.472;7.850;2022-10-16T14:24:57;4.13;;;1.85;;
32760;SDS011;19126;47.472;7.850;2022-10-16T14:27:27;7.82;;;1.77;;
32760;SDS011;19126;47.472;7.850;2022-10-16T14:30:16;11.55;;;2.03;;
32760;SDS011;19126;47.472;7.850;2022-10-16T14:32:53;15.00;;;1.90;;
32760;SDS011;19126;47.472;7.850;2022-10-16T14:35:26;5.35;;;2.80;;
32760;SDS011;19126;47.472;7.850;2022-10-16T14:37:57;5.35;;;1.73;;
32760;SDS011;19126;47.472;7.850;2022-10-16T14:40:27;8.93;;;1.60;;
32760;SDS011;19126;47.472;7.850;2022-10-16T14:42:56;5.80;;;1.48;;
32760;SDS011;19126;47.472;7.850;2022-10-16T14:45:28;4.00;;;1.77;;
32760;SDS011;19126;47.472;7.850;2022-10-16T14:47:59;13.00;;;1.33;;
32760;SDS011;19126;47.472;7.850;2022-10-16T14:50:31;9.07;;;1.55;;
32760;SDS011;19126;47.472;7.850;2022-10-16T14:52:58;8.48;;;1.70;;
32760;SDS011;19126;47.472;7.850;2022-10-16T14:55:26;4.00;;;1.60;;
32760;SDS011;19126;47.472;7.850;2022-10-16T14:57:53;6.88;;;1.65;;
32760;SDS011;19126;47.472;7.850;2022-10-16T15:00:21;4.43;;;2.08;;
32760;SDS011;19126;47.472;7.850;2022-10-16T15:02:51;9.70;;;2.03;;
32760;SDS011;19126;47.472;7.850;2022-10-16T15:05:20;4.40;;;1.60;;
32760;SDS011;19126;47.472;7.850;2022-10-16T15:07:49;3.83;;;1.55;;
32760;SDS011;19126;47.472;7.850;2022-10-16T15:10:20;4.15;;;1.75;;
32760;SDS011;19126;47.472;7.850;2022-10-16T15:12:48;8.45;;;3.72;;
32760;SDS011;19126;47.472;7.850;2022-10-16T15:15:23;3.92;;;1.50;;
32760;SDS011;19126;47.472;7.850;2022-10-16T15:20:27;4.13;;;1.73;;
32760;SDS011;19126;47.472;7.850;2022-10-16T15:22:58;6.10;;;1.53;;
32760;SDS011;19126;47.472;7.850;2022-10-16T15:25:30;7.95;;;2.00;;